sensor_id;sensor_type;location;lat;lon;timestamp;P1;durP1;ratioP1;P2;durP2;ratioP2
3643;SDS011;1838;50.742;7.158;2023-03-31T00:00:34;3.93;;;1.03;;
3643;SDS011;1838;50.742;7.158;2023-03-31T00:03:00;8.77;;;1.60;;
3643;SDS011;1838;50.742;7.158;2023-03-31T00:05:26;4.33;;;1.20;;
3643;SDS011;1838;50.742;7.158;2023-03-31T00:07:56;6.57;;;1.30;;
3643;SDS011;1838;50.742;7.158;2023-03-31T00:10:25;7.60;;;1.27;;
3643;SDS011;1838;50.742;7.158;2023-03-31T00:12:52;4.73;;;1.40;;
3643;SDS011;1838;50.742;7.158;2023-03-31T00:15:17;3.43;;;1.07;;
3643;SDS011;1838;50.742;7.158;2023-03-31T00:17:43;7.40;;;1.40;;
3643;SDS011;1838;50.742;7.158;2023-03-31T00:20:08;7.00;;;1.73;;
3643;SDS011;1838;50.742;7.158;2023-03-31T00:22:36;7.03;;;1.27;;
3643;SDS011;1838;50.742;7.158;2023-03-31T00:25:02;3.13;;;1.20;;
3643;SDS011;1838;50.742;7.158;2023-03-31T00:27:29;1.90;;;0.90;;
3643;SDS011;1838;50.742;7.158;2023-03-31T00:29:55;3.37;;;1.20;;
3643;SDS011;1838;50.742;7.158;2023-03-31T00:32:29;2.83;;;0.90;;
3643;SDS011;1838;50.742;7.158;2023-03-31T00:34:54;5.37;;;0.90;;
3643;SDS011;1838;50.742;7.158;2023-03-31T00:37:20;9.53;;;1.10;;
3643;SDS011;1838;50.742;7.158;2023-03-31T00:39:46;2.57;;;1.10;;
3643;SDS011;1838;50.742;7.158;2023-03-31T00:42:11;1.90;;;0.90;;
3643;SDS011;1838;50.742;7.158;2023-03-31T00:44:38;3.00;;;1.10;;
3643;SDS011;1838;50.742;7.158;2023-03-31T00:47:46;3.50;;;1.20;;
3643;SDS011;1838;50.742;7.158;2023-03-31T00:50:20;5.37;;;1.30;;
3643;SDS011;1838;50.742;7.158;2023-03-31T00:52:50;1.47;;;0.83;;
3643;SDS011;1838;50.742;7.158;2023-03-31T00:55:27;3.73;;;1.07;;
3643;SDS011;1838;50.742;7.158;2023-03-31T00:57:59;2.73;;;1.10;;
3643;SDS011;1838;50.742;7.158;2023-03-31T01:00:28;3.63;;;1.23;;
3643;SDS011;1838;50.742;7.158;2023-03-31T01:02:55;3.67;;;1.03;;
3643;SDS011;1838;50.742;7.158;2023-03-31T01:05:38;3.33;;;1.40;;
3643;SDS011;1838;50.742;7.158;2023-03-31T01:08:04;6.77;;;2.07;;
3643;SDS011;1838;50.742;7.158;2023-03-31T01:10:32;4.60;;;1.57;;
3643;SDS011;1838;50.742;7.158;2023-03-31T01:13:05;9.10;;;1.53;;
3643;SDS011;1838;50.742;7.158;2023-03-31T01:15:37;7.60;;;2.03;;
3643;SDS011;1838;50.742;7.158;2023-03-31T01:18:03;6.77;;;1.60;;
3643;SDS011;1838;50.742;7.158;2023-03-31T01:20:39;4.13;;;2.40;;
3643;SDS011;1838;50.742;7.158;2023-03-31T01:34:40;10.03;;;1.87;;
3643;SDS011;1838;50.742;7.158;2023-03-31T01:43:19;6.00;;;1.30;;
3643;SDS011;1838;50.742;7.158;2023-03-31T01:45:56;9.10;;;2.10;;
3643;SDS011;1838;50.742;7.158;2023-03-31T01:48:42;12.70;;;2.00;;
3643;SDS011;1838;50.742;7.158;2023-03-31T01:51:18;7.70;;;1.93;;
3643;SDS011;1838;50.742;7.158;2023-03-31T01:53:55;10.17;;;2.30;;
3643;SDS011;1838;50.742;7.158;2023-03-31T01:56:40;11.27;;;1.87;;
3643;SDS011;1838;50.742;7.158;2023-03-31T01:59:13;7.20;;;1.90;;
3643;SDS011;1838;50.742;7.158;2023-03-31T02:01:46;5.90;;;1.80;;
3643;SDS011;1838;50.742;7.158;2023-03-31T02:04:17;23.97;;;3.30;;
3643;SDS011;1838;50.742;7.158;2023-03-31T02:06:53;17.33;;;3.70;;
3643;SDS011;1838;50.742;7.158;2023-03-31T02:09:28;5.43;;;1.77;;
3643;SDS011;1838;50.742;7.158;2023-03-31T02:11:59;5.27;;;1.97;;
3643;SDS011;1838;50.742;7.158;2023-03-31T02:14:30;6.07;;;1.63;;
3643;SDS011;1838;50.742;7.158;2023-03-31T02:17:00;12.63;;;2.10;;
3643;SDS011;1838;50.742;7.158;2023-03-31T02:19:32;2.77;;;1.80;;
3643;SDS011;1838;50.742;7.158;2023-03-31T02:22:01;13.93;;;2.90;;
3643;SDS011;1838;50.742;7.158;2023-03-31T02:24:29;9.70;;;2.40;;
3643;SDS011;1838;50.742;7.158;2023-03-31T02:27:05;6.43;;;2.03;;
3643;SDS011;1838;50.742;7.158;2023-03-31T02:29:39;6.03;;;2.37;;
3643;SDS011;1838;50.742;7.158;2023-03-31T02:32:08;7.83;;;2.47;;
3643;SDS011;1838;50.742;7.158;2023-03-31T02:34:40;11.77;;;2.20;;
3643;SDS011;1838;50.742;7.158;2023-03-31T02:37:06;8.23;;;1.93;;
3643;SDS011;1838;50.742;7.158;2023-03-31T02:39:33;6.50;;;1.70;;
3643;SDS011;1838;50.742;7.158;2023-03-31T02:42:00;9.23;;;2.07;;
3643;SDS011;1838;50.742;7.158;2023-03-31T02:44:31;10.07;;;2.53;;
3643;SDS011;1838;50.742;7.158;2023-03-31T02:47:05;8.93;;;2.37;;
3643;SDS011;1838;50.742;7.158;2023-03-31T02:49:32;7.63;;;2.30;;
3643;SDS011;1838;50.742;7.158;2023-03-31T02:52:14;5.30;;;1.77;;
3643;SDS011;1838;50.742;7.158;2023-03-31T03:12:24;6.73;;;1.93;;
3643;SDS011;1838;50.742;7.158;2023-03-31T03:17:46;7.00;;;2.10;;
3643;SDS011;1838;50.742;7.158;2023-03-31T03:20:13;3.87;;;1.73;;
3643;SDS011;1838;50.742;7.158;2023-03-31T03:22:40;7.00;;;2.00;;
3643;SDS011;1838;50.742;7.158;2023-03-31T03:25:07;11.47;;;3.10;;
3643;SDS011;1838;50.742;7.158;2023-03-31T03:27:35;4.17;;;1.63;;
3643;SDS011;1838;50.742;7.158;2023-03-31T03:30:06;2.60;;;1.73;;
3643;SDS011;1838;50.742;7.158;2023-03-31T03:32:34;4.53;;;1.80;;
3643;SDS011;1838;50.742;7.158;2023-03-31T03:35:00;6.83;;;2.30;;
3643;SDS011;1838;50.742;7.158;2023-03-31T03:37:27;6.93;;;1.53;;
3643;SDS011;1838;50.742;7.158;2023-03-31T03:39:53;7.97;;;2.13;;
3643;SDS011;1838;50.742;7.158;2023-03-31T03:42:19;3.00;;;2.00;;
3643;SDS011;1838;50.742;7.158;2023-03-31T03:44:45;6.80;;;1.67;;
3643;SDS011;1838;50.742;7.158;2023-03-31T03:47:11;7.30;;;1.70;;
3643;SDS011;1838;50.742;7.158;2023-03-31T03:49:37;5.60;;;1.77;;
3643;SDS011;1838;50.742;7.158;2023-03-31T03:52:02;7.43;;;1.70;;
3643;SDS011;1838;50.742;7.158;2023-03-31T03:54:28;7.47;;;1.70;;
3643;SDS011;1838;50.742;7.158;2023-03-31T03:56:54;4.53;;;2.00;;
3643;SDS011;1838;50.742;7.158;2023-03-31T03:59:20;4.30;;;1.67;;
3643;SDS011;1838;50.742;7.158;2023-03-31T04:01:45;3.30;;;1.23;;
3643;SDS011;1838;50.742;7.158;2023-03-31T04:04:11;3.50;;;1.27;;
3643;SDS011;1838;50.742;7.158;2023-03-31T04:06:36;7.77;;;1.40;;
3643;SDS011;1838;50.742;7.158;2023-03-31T04:09:02;3.70;;;1.50;;
3643;SDS011;1838;50.742;7.158;2023-03-31T04:11:28;5.63;;;1.30;;
3643;SDS011;1838;50.742;7.158;2023-03-31T04:13:54;5.70;;;1.70;;
3643;SDS011;1838;50.742;7.158;2023-03-31T04:16:20;3.03;;;1.10;;
3643;SDS011;1838;50.742;7.158;2023-03-31T04:18:47;6.40;;;1.63;;
3643;SDS011;1838;50.742;7.158;2023-03-31T04:21:13;2.90;;;1.77;;
3643;SDS011;1838;50.742;7.158;2023-03-31T04:23:47;6.27;;;1.50;;
3643;SDS011;1838;50.742;7.158;2023-03-31T04:26:15;2.83;;;1.20;;
3643;SDS011;1838;50.742;7.158;2023-03-31T04:28:55;6.27;;;1.57;;
3643;SDS011;1838;50.742;7.158;2023-03-31T04:31:26;7.73;;;1.63;;
3643;SDS011;1838;50.742;7.158;2023-03-31T04:33:54;7.33;;;1.80;;
3643;SDS011;1838;50.742;7.158;2023-03-31T04:36:25;5.43;;;1.53;;
3643;SDS011;1838;50.742;7.158;2023-03-31T04:38:50;5.07;;;1.60;;
3643;SDS011;1838;50.742;7.158;2023-03-31T04:41:18;4.27;;;1.80;;
3643;SDS011;1838;50.742;7.158;2023-03-31T04:43:47;2.50;;;1.30;;
3643;SDS011;1838;50.742;7.158;2023-03-31T04:46:13;3.10;;;1.40;;
3643;SDS011;1838;50.742;7.158;2023-03-31T04:48:39;5.53;;;1.40;;
3643;SDS011;1838;50.742;7.158;2023-03-31T04:51:05;2.80;;;1.50;;
3643;SDS011;1838;50.742;7.158;2023-03-31T04:53:31;8.97;;;1.60;;
3643;SDS011;1838;50.742;7.158;2023-03-31T04:55:57;7.77;;;1.80;;
3643;SDS011;1838;50.742;7.158;2023-03-31T04:58:23;5.90;;;1.33;;
3643;SDS011;1838;50.742;7.158;2023-03-31T05:00:50;4.93;;;1.50;;
3643;SDS011;1838;50.742;7.158;2023-03-31T05:03:16;7.43;;;1.90;;
3643;SDS011;1838;50.742;7.158;2023-03-31T05:05:42;2.40;;;1.17;;
3643;SDS011;1838;50.742;7.158;2023-03-31T05:08:07;7.40;;;2.07;;
3643;SDS011;1838;50.742;7.158;2023-03-31T05:10:33;31.70;;;3.23;;
3643;SDS011;1838;50.742;7.158;2023-03-31T05:12:58;7.90;;;1.97;;
3643;SDS011;1838;50.742;7.158;2023-03-31T05:15:24;3.20;;;1.83;;
3643;SDS011;1838;50.742;7.158;2023-03-31T05:17:49;5.00;;;1.23;;
3643;SDS011;1838;50.742;7.158;2023-03-31T05:20:16;3.70;;;1.37;;
3643;SDS011;1838;50.742;7.158;2023-03-31T05:22:43;3.20;;;1.43;;
3643;SDS011;1838;50.742;7.158;2023-03-31T05:25:08;2.53;;;1.00;;
3643;SDS011;1838;50.742;7.158;2023-03-31T05:27:36;3.80;;;1.40;;
3643;SDS011;1838;50.742;7.158;2023-03-31T05:30:02;5.90;;;1.30;;
3643;SDS011;1838;50.742;7.158;2023-03-31T05:32:28;1.73;;;0.90;;
3643;SDS011;1838;50.742;7.158;2023-03-31T05:34:53;2.23;;;1.53;;
3643;SDS011;1838;50.742;7.158;2023-03-31T05:37:25;3.40;;;1.10;;
3643;SDS011;1838;50.742;7.158;2023-03-31T05:39:51;2.33;;;0.70;;
3643;SDS011;1838;50.742;7.158;2023-03-31T05:42:17;3.23;;;1.03;;
3643;SDS011;1838;50.742;7.158;2023-03-31T05:44:44;5.33;;;1.07;;
3643;SDS011;1838;50.742;7.158;2023-03-31T05:47:10;2.47;;;1.13;;
3643;SDS011;1838;50.742;7.158;2023-03-31T05:49:36;3.53;;;1.07;;
3643;SDS011;1838;50.742;7.158;2023-03-31T05:52:02;2.90;;;0.83;;
3643;SDS011;1838;50.742;7.158;2023-03-31T05:54:28;2.53;;;0.90;;
3643;SDS011;1838;50.742;7.158;2023-03-31T05:56:54;1.80;;;1.03;;
3643;SDS011;1838;50.742;7.158;2023-03-31T05:59:20;1.83;;;0.70;;
3643;SDS011;1838;50.742;7.158;2023-03-31T06:01:46;3.07;;;0.90;;
3643;SDS011;1838;50.742;7.158;2023-03-31T06:04:11;6.57;;;1.00;;
3643;SDS011;1838;50.742;7.158;2023-03-31T06:06:37;7.27;;;0.90;;
3643;SDS011;1838;50.742;7.158;2023-03-31T06:09:02;2.07;;;0.70;;
3643;SDS011;1838;50.742;7.158;2023-03-31T06:11:29;2.30;;;0.80;;
3643;SDS011;1838;50.742;7.158;2023-03-31T06:13:54;1.73;;;0.70;;
3643;SDS011;1838;50.742;7.158;2023-03-31T06:16:20;2.40;;;0.80;;
3643;SDS011;1838;50.742;7.158;2023-03-31T06:18:45;2.90;;;1.23;;
3643;SDS011;1838;50.742;7.158;2023-03-31T06:21:12;1.50;;;0.70;;
3643;SDS011;1838;50.742;7.158;2023-03-31T06:23:40;3.10;;;0.90;;
3643;SDS011;1838;50.742;7.158;2023-03-31T06:26:10;1.83;;;0.70;;
3643;SDS011;1838;50.742;7.158;2023-03-31T06:28:37;2.07;;;0.87;;
3643;SDS011;1838;50.742;7.158;2023-03-31T06:31:05;1.83;;;0.80;;
3643;SDS011;1838;50.742;7.158;2023-03-31T06:33:32;2.10;;;1.00;;
3643;SDS011;1838;50.742;7.158;2023-03-31T06:35:59;1.63;;;0.80;;
3643;SDS011;1838;50.742;7.158;2023-03-31T06:38:29;1.70;;;1.10;;
3643;SDS011;1838;50.742;7.158;2023-03-31T06:40:55;2.53;;;1.07;;
3643;SDS011;1838;50.742;7.158;2023-03-31T06:43:21;1.93;;;0.70;;
3643;SDS011;1838;50.742;7.158;2023-03-31T06:45:47;4.90;;;1.10;;
3643;SDS011;1838;50.742;7.158;2023-03-31T06:48:13;2.47;;;0.90;;
3643;SDS011;1838;50.742;7.158;2023-03-31T06:50:39;6.17;;;0.97;;
3643;SDS011;1838;50.742;7.158;2023-03-31T06:53:05;3.73;;;1.20;;
3643;SDS011;1838;50.742;7.158;2023-03-31T06:55:32;4.20;;;1.10;;
3643;SDS011;1838;50.742;7.158;2023-03-31T06:57:58;3.07;;;1.30;;
3643;SDS011;1838;50.742;7.158;2023-03-31T07:00:24;5.93;;;1.10;;
3643;SDS011;1838;50.742;7.158;2023-03-31T07:02:51;3.80;;;1.30;;
3643;SDS011;1838;50.742;7.158;2023-03-31T07:05:17;3.27;;;1.40;;
3643;SDS011;1838;50.742;7.158;2023-03-31T07:07:44;7.03;;;1.97;;
3643;SDS011;1838;50.742;7.158;2023-03-31T07:10:10;7.77;;;2.13;;
3643;SDS011;1838;50.742;7.158;2023-03-31T07:12:36;5.43;;;1.57;;
3643;SDS011;1838;50.742;7.158;2023-03-31T07:15:02;8.80;;;1.67;;
3643;SDS011;1838;50.742;7.158;2023-03-31T07:17:28;7.80;;;1.87;;
3643;SDS011;1838;50.742;7.158;2023-03-31T07:19:54;4.47;;;1.30;;
3643;SDS011;1838;50.742;7.158;2023-03-31T07:22:19;4.47;;;1.90;;
3643;SDS011;1838;50.742;7.158;2023-03-31T07:24:45;5.83;;;1.70;;
3643;SDS011;1838;50.742;7.158;2023-03-31T07:27:10;9.87;;;2.20;;
3643;SDS011;1838;50.742;7.158;2023-03-31T07:29:36;4.53;;;1.30;;
3643;SDS011;1838;50.742;7.158;2023-03-31T07:32:01;6.30;;;1.93;;
3643;SDS011;1838;50.742;7.158;2023-03-31T07:34:27;4.03;;;1.90;;
3643;SDS011;1838;50.742;7.158;2023-03-31T07:36:56;4.17;;;1.60;;
3643;SDS011;1838;50.742;7.158;2023-03-31T07:39:22;3.13;;;1.17;;
3643;SDS011;1838;50.742;7.158;2023-03-31T07:41:47;3.23;;;1.73;;
3643;SDS011;1838;50.742;7.158;2023-03-31T07:44:13;4.60;;;2.10;;
3643;SDS011;1838;50.742;7.158;2023-03-31T07:46:41;6.80;;;1.10;;
3643;SDS011;1838;50.742;7.158;2023-03-31T07:49:07;2.00;;;1.07;;
3643;SDS011;1838;50.742;7.158;2023-03-31T07:51:33;2.63;;;1.33;;
3643;SDS011;1838;50.742;7.158;2023-03-31T07:53:59;1.97;;;1.10;;
3643;SDS011;1838;50.742;7.158;2023-03-31T07:56:25;1.73;;;1.03;;
3643;SDS011;1838;50.742;7.158;2023-03-31T07:58:50;1.83;;;1.20;;
3643;SDS011;1838;50.742;7.158;2023-03-31T08:01:17;4.50;;;1.40;;
3643;SDS011;1838;50.742;7.158;2023-03-31T08:03:45;3.47;;;1.13;;
3643;SDS011;1838;50.742;7.158;2023-03-31T08:06:16;7.43;;;1.50;;
3643;SDS011;1838;50.742;7.158;2023-03-31T08:08:43;1.80;;;1.00;;
3643;SDS011;1838;50.742;7.158;2023-03-31T08:11:09;1.57;;;0.87;;
3643;SDS011;1838;50.742;7.158;2023-03-31T08:13:35;2.00;;;0.90;;
3643;SDS011;1838;50.742;7.158;2023-03-31T08:16:01;6.00;;;1.27;;
3643;SDS011;1838;50.742;7.158;2023-03-31T08:18:27;1.80;;;0.80;;
3643;SDS011;1838;50.742;7.158;2023-03-31T08:20:52;4.20;;;1.30;;
3643;SDS011;1838;50.742;7.158;2023-03-31T08:23:18;5.33;;;1.17;;
3643;SDS011;1838;50.742;7.158;2023-03-31T08:25:44;2.33;;;1.00;;
3643;SDS011;1838;50.742;7.158;2023-03-31T08:28:09;3.83;;;1.20;;
3643;SDS011;1838;50.742;7.158;2023-03-31T08:30:38;3.50;;;1.13;;
3643;SDS011;1838;50.742;7.158;2023-03-31T08:33:04;1.80;;;1.20;;
3643;SDS011;1838;50.742;7.158;2023-03-31T08:35:31;2.60;;;1.00;;
3643;SDS011;1838;50.742;7.158;2023-03-31T08:37:57;3.30;;;1.10;;
3643;SDS011;1838;50.742;7.158;2023-03-31T08:40:23;6.53;;;1.53;;
3643;SDS011;1838;50.742;7.158;2023-03-31T08:45:35;7.03;;;1.30;;
3643;SDS011;1838;50.742;7.158;2023-03-31T08:51:05;3.80;;;1.50;;
3643;SDS011;1838;50.742;7.158;2023-03-31T08:53:46;8.33;;;1.60;;
3643;SDS011;1838;50.742;7.158;2023-03-31T08:56:17;5.73;;;2.03;;
3643;SDS011;1838;50.742;7.158;2023-03-31T08:58:47;4.80;;;1.40;;
3643;SDS011;1838;50.742;7.158;2023-03-31T09:01:26;8.23;;;1.87;;
3643;SDS011;1838;50.742;7.158;2023-03-31T09:12:15;4.50;;;2.00;;
3643;SDS011;1838;50.742;7.158;2023-03-31T09:17:29;10.20;;;2.53;;
3643;SDS011;1838;50.742;7.158;2023-03-31T09:23:11;6.10;;;1.90;;
3643;SDS011;1838;50.742;7.158;2023-03-31T09:26:01;6.30;;;2.20;;
3643;SDS011;1838;50.742;7.158;2023-03-31T09:28:35;4.53;;;1.73;;
3643;SDS011;1838;50.742;7.158;2023-03-31T09:31:13;6.03;;;2.13;;
3643;SDS011;1838;50.742;7.158;2023-03-31T09:33:45;6.47;;;1.93;;
3643;SDS011;1838;50.742;7.158;2023-03-31T09:36:18;4.17;;;1.63;;
3643;SDS011;1838;50.742;7.158;2023-03-31T09:38:48;5.83;;;2.17;;
3643;SDS011;1838;50.742;7.158;2023-03-31T09:41:14;8.53;;;2.10;;
3643;SDS011;1838;50.742;7.158;2023-03-31T09:43:41;7.60;;;2.47;;
3643;SDS011;1838;50.742;7.158;2023-03-31T09:46:14;8.33;;;1.90;;
3643;SDS011;1838;50.742;7.158;2023-03-31T09:48:47;8.67;;;2.10;;
3643;SDS011;1838;50.742;7.158;2023-03-31T09:51:23;7.53;;;1.87;;
3643;SDS011;1838;50.742;7.158;2023-03-31T09:54:00;4.43;;;1.97;;
3643;SDS011;1838;50.742;7.158;2023-03-31T09:56:54;7.20;;;2.53;;
3643;SDS011;1838;50.742;7.158;2023-03-31T09:59:42;5.63;;;2.20;;
3643;SDS011;1838;50.742;7.158;2023-03-31T10:04:47;11.27;;;2.23;;
3643;SDS011;1838;50.742;7.158;2023-03-31T10:07:18;6.50;;;2.40;;
3643;SDS011;1838;50.742;7.158;2023-03-31T10:09:46;10.90;;;2.30;;
3643;SDS011;1838;50.742;7.158;2023-03-31T10:12:16;8.13;;;1.90;;
3643;SDS011;1838;50.742;7.158;2023-03-31T10:14:47;4.00;;;2.30;;
3643;SDS011;1838;50.742;7.158;2023-03-31T10:17:15;13.20;;;2.30;;
3643;SDS011;1838;50.742;7.158;2023-03-31T10:19:47;5.63;;;2.00;;
3643;SDS011;1838;50.742;7.158;2023-03-31T10:22:15;9.23;;;2.30;;
3643;SDS011;1838;50.742;7.158;2023-03-31T10:24:48;3.00;;;1.53;;
3643;SDS011;1838;50.742;7.158;2023-03-31T10:29:50;4.77;;;1.40;;
3643;SDS011;1838;50.742;7.158;2023-03-31T10:32:24;7.53;;;2.00;;
3643;SDS011;1838;50.742;7.158;2023-03-31T10:34:58;7.83;;;2.47;;
3643;SDS011;1838;50.742;7.158;2023-03-31T10:37:32;5.00;;;1.67;;
3643;SDS011;1838;50.742;7.158;2023-03-31T10:43:08;6.27;;;1.97;;
3643;SDS011;1838;50.742;7.158;2023-03-31T10:45:42;9.77;;;1.80;;
3643;SDS011;1838;50.742;7.158;2023-03-31T10:48:25;12.40;;;2.47;;
3643;SDS011;1838;50.742;7.158;2023-03-31T10:50:51;4.80;;;1.73;;
3643;SDS011;1838;50.742;7.158;2023-03-31T10:53:17;7.67;;;3.13;;
3643;SDS011;1838;50.742;7.158;2023-03-31T10:56:00;13.00;;;2.80;;
3643;SDS011;1838;50.742;7.158;2023-03-31T11:13:09;14.53;;;1.80;;
3643;SDS011;1838;50.742;7.158;2023-03-31T11:15:56;2.83;;;1.53;;
3643;SDS011;1838;50.742;7.158;2023-03-31T11:21:28;4.30;;;2.13;;
3643;SDS011;1838;50.742;7.158;2023-03-31T11:24:14;9.37;;;1.87;;
3643;SDS011;1838;50.742;7.158;2023-03-31T11:26:51;4.53;;;1.63;;
3643;SDS011;1838;50.742;7.158;2023-03-31T11:43:22;6.53;;;2.20;;
3643;SDS011;1838;50.742;7.158;2023-03-31T11:45:52;5.80;;;2.00;;
3643;SDS011;1838;50.742;7.158;2023-03-31T11:48:32;3.50;;;1.50;;
3643;SDS011;1838;50.742;7.158;2023-03-31T11:51:17;5.43;;;2.17;;
3643;SDS011;1838;50.742;7.158;2023-03-31T11:53:50;4.67;;;1.80;;
3643;SDS011;1838;50.742;7.158;2023-03-31T11:56:18;9.30;;;3.40;;
3643;SDS011;1838;50.742;7.158;2023-03-31T11:58:56;6.00;;;2.27;;
3643;SDS011;1838;50.742;7.158;2023-03-31T12:01:24;11.53;;;2.47;;
3643;SDS011;1838;50.742;7.158;2023-03-31T12:04:03;8.83;;;2.03;;
3643;SDS011;1838;50.742;7.158;2023-03-31T12:06:38;9.67;;;2.43;;
3643;SDS011;1838;50.742;7.158;2023-03-31T12:09:12;6.23;;;1.30;;
3643;SDS011;1838;50.742;7.158;2023-03-31T12:11:56;8.67;;;1.50;;
3643;SDS011;1838;50.742;7.158;2023-03-31T12:14:32;7.53;;;1.80;;
3643;SDS011;1838;50.742;7.158;2023-03-31T12:17:13;4.07;;;1.23;;
3643;SDS011;1838;50.742;7.158;2023-03-31T12:19:49;2.20;;;0.80;;
3643;SDS011;1838;50.742;7.158;2023-03-31T12:22:30;2.17;;;1.13;;
3643;SDS011;1838;50.742;7.158;2023-03-31T12:25:11;4.40;;;1.37;;
3643;SDS011;1838;50.742;7.158;2023-03-31T12:27:42;2.47;;;1.00;;
3643;SDS011;1838;50.742;7.158;2023-03-31T12:30:18;3.30;;;1.00;;
3643;SDS011;1838;50.742;7.158;2023-03-31T12:32:54;3.80;;;1.30;;
3643;SDS011;1838;50.742;7.158;2023-03-31T12:35:34;7.93;;;1.40;;
3643;SDS011;1838;50.742;7.158;2023-03-31T12:41:06;2.23;;;1.00;;
3643;SDS011;1838;50.742;7.158;2023-03-31T12:43:47;3.10;;;1.20;;
3643;SDS011;1838;50.742;7.158;2023-03-31T12:57:28;2.63;;;1.20;;
3643;SDS011;1838;50.742;7.158;2023-03-31T13:02:34;9.70;;;1.37;;
3643;SDS011;1838;50.742;7.158;2023-03-31T13:05:36;4.87;;;1.20;;
3643;SDS011;1838;50.742;7.158;2023-03-31T13:08:08;2.57;;;1.40;;
3643;SDS011;1838;50.742;7.158;2023-03-31T13:13:23;3.67;;;1.90;;
3643;SDS011;1838;50.742;7.158;2023-03-31T13:15:51;5.57;;;1.27;;
3643;SDS011;1838;50.742;7.158;2023-03-31T13:18:20;5.53;;;1.40;;
3643;SDS011;1838;50.742;7.158;2023-03-31T13:20:56;6.50;;;1.37;;
3643;SDS011;1838;50.742;7.158;2023-03-31T13:23:24;9.20;;;1.63;;
3643;SDS011;1838;50.742;7.158;2023-03-31T13:25:54;5.83;;;1.50;;
3643;SDS011;1838;50.742;7.158;2023-03-31T13:30:47;4.40;;;1.27;;
3643;SDS011;1838;50.742;7.158;2023-03-31T13:33:34;3.93;;;1.30;;
3643;SDS011;1838;50.742;7.158;2023-03-31T13:38:49;4.07;;;1.50;;
3643;SDS011;1838;50.742;7.158;2023-03-31T13:50:16;5.13;;;1.30;;
3643;SDS011;1838;50.742;7.158;2023-03-31T14:01:50;8.80;;;1.40;;
3643;SDS011;1838;50.742;7.158;2023-03-31T14:09:42;4.73;;;1.60;;
3643;SDS011;1838;50.742;7.158;2023-03-31T14:14:59;5.37;;;1.40;;
3643;SDS011;1838;50.742;7.158;2023-03-31T14:31:54;4.60;;;1.40;;
3643;SDS011;1838;50.742;7.158;2023-03-31T14:34:45;5.73;;;1.40;;
3643;SDS011;1838;50.742;7.158;2023-03-31T14:37:19;13.03;;;2.13;;
3643;SDS011;1838;50.742;7.158;2023-03-31T14:39:47;2.50;;;0.93;;
3643;SDS011;1838;50.742;7.158;2023-03-31T14:42:17;2.33;;;1.10;;
3643;SDS011;1838;50.742;7.158;2023-03-31T14:44:45;6.30;;;1.00;;
3643;SDS011;1838;50.742;7.158;2023-03-31T14:47:25;6.87;;;1.47;;
3643;SDS011;1838;50.742;7.158;2023-03-31T14:50:02;4.63;;;1.53;;
3643;SDS011;1838;50.742;7.158;2023-03-31T14:52:36;3.50;;;1.20;;
3643;SDS011;1838;50.742;7.158;2023-03-31T14:55:01;2.13;;;1.07;;
3643;SDS011;1838;50.742;7.158;2023-03-31T14:57:29;4.40;;;1.03;;
3643;SDS011;1838;50.742;7.158;2023-03-31T15:00:00;4.80;;;1.27;;
3643;SDS011;1838;50.742;7.158;2023-03-31T15:02:33;3.10;;;1.10;;
3643;SDS011;1838;50.742;7.158;2023-03-31T15:05:07;4.33;;;1.10;;
3643;SDS011;1838;50.742;7.158;2023-03-31T15:07:35;8.97;;;1.00;;
3643;SDS011;1838;50.742;7.158;2023-03-31T15:10:05;2.40;;;1.10;;
3643;SDS011;1838;50.742;7.158;2023-03-31T15:12:31;8.17;;;1.27;;
3643;SDS011;1838;50.742;7.158;2023-03-31T15:15:03;6.10;;;1.13;;
3643;SDS011;1838;50.742;7.158;2023-03-31T15:17:38;3.40;;;1.00;;
3643;SDS011;1838;50.742;7.158;2023-03-31T15:23:03;4.13;;;1.30;;
3643;SDS011;1838;50.742;7.158;2023-03-31T15:25:42;3.70;;;1.30;;
3643;SDS011;1838;50.742;7.158;2023-03-31T15:28:12;4.50;;;1.43;;
3643;SDS011;1838;50.742;7.158;2023-03-31T15:30:41;3.70;;;1.30;;
3643;SDS011;1838;50.742;7.158;2023-03-31T15:33:07;5.40;;;1.50;;
3643;SDS011;1838;50.742;7.158;2023-03-31T15:35:39;2.70;;;1.43;;
3643;SDS011;1838;50.742;7.158;2023-03-31T15:38:05;3.90;;;1.50;;
3643;SDS011;1838;50.742;7.158;2023-03-31T15:40:37;3.83;;;1.00;;
3643;SDS011;1838;50.742;7.158;2023-03-31T15:43:07;3.10;;;1.03;;
3643;SDS011;1838;50.742;7.158;2023-03-31T15:50:45;5.27;;;1.10;;
3643;SDS011;1838;50.742;7.158;2023-03-31T15:53:25;5.20;;;1.30;;
3643;SDS011;1838;50.742;7.158;2023-03-31T15:55:56;2.40;;;1.27;;
3643;SDS011;1838;50.742;7.158;2023-03-31T16:01:26;4.30;;;1.23;;
3643;SDS011;1838;50.742;7.158;2023-03-31T16:03:58;3.40;;;1.40;;
3643;SDS011;1838;50.742;7.158;2023-03-31T16:06:28;3.05;;;0.95;;
3643;SDS011;1838;50.742;7.158;2023-03-31T16:09:10;5.20;;;1.30;;
3643;SDS011;1838;50.742;7.158;2023-03-31T16:14:12;5.93;;;1.10;;
3643;SDS011;1838;50.742;7.158;2023-03-31T16:16:45;6.03;;;1.20;;
3643;SDS011;1838;50.742;7.158;2023-03-31T16:19:16;2.93;;;0.93;;
3643;SDS011;1838;50.742;7.158;2023-03-31T16:21:50;3.20;;;1.03;;
3643;SDS011;1838;50.742;7.158;2023-03-31T16:24:27;3.73;;;1.17;;
3643;SDS011;1838;50.742;7.158;2023-03-31T16:26:59;1.80;;;0.80;;
3643;SDS011;1838;50.742;7.158;2023-03-31T16:29:30;2.33;;;0.80;;
3643;SDS011;1838;50.742;7.158;2023-03-31T16:32:08;2.90;;;1.20;;
3643;SDS011;1838;50.742;7.158;2023-03-31T16:34:49;4.97;;;1.30;;
3643;SDS011;1838;50.742;7.158;2023-03-31T16:37:23;4.90;;;0.80;;
3643;SDS011;1838;50.742;7.158;2023-03-31T16:39:49;2.40;;;0.87;;
3643;SDS011;1838;50.742;7.158;2023-03-31T16:42:15;2.27;;;1.03;;
3643;SDS011;1838;50.742;7.158;2023-03-31T16:44:42;1.87;;;0.87;;
3643;SDS011;1838;50.742;7.158;2023-03-31T16:47:08;3.50;;;1.17;;
3643;SDS011;1838;50.742;7.158;2023-03-31T16:49:33;4.83;;;1.03;;
3643;SDS011;1838;50.742;7.158;2023-03-31T16:51:59;3.60;;;1.37;;
3643;SDS011;1838;50.742;7.158;2023-03-31T16:54:25;2.30;;;0.80;;
3643;SDS011;1838;50.742;7.158;2023-03-31T16:56:50;6.40;;;1.10;;
3643;SDS011;1838;50.742;7.158;2023-03-31T16:59:16;1.90;;;0.90;;
3643;SDS011;1838;50.742;7.158;2023-03-31T17:01:41;4.60;;;0.80;;
3643;SDS011;1838;50.742;7.158;2023-03-31T17:04:07;7.70;;;1.17;;
3643;SDS011;1838;50.742;7.158;2023-03-31T17:06:32;2.20;;;0.80;;
3643;SDS011;1838;50.742;7.158;2023-03-31T17:08:58;7.07;;;1.30;;
3643;SDS011;1838;50.742;7.158;2023-03-31T17:11:24;3.33;;;1.10;;
3643;SDS011;1838;50.742;7.158;2023-03-31T17:13:50;5.00;;;1.33;;
3643;SDS011;1838;50.742;7.158;2023-03-31T17:16:16;4.40;;;1.20;;
3643;SDS011;1838;50.742;7.158;2023-03-31T17:18:42;8.43;;;1.00;;
3643;SDS011;1838;50.742;7.158;2023-03-31T17:21:09;7.60;;;1.40;;
3643;SDS011;1838;50.742;7.158;2023-03-31T17:23:36;2.13;;;0.70;;
3643;SDS011;1838;50.742;7.158;2023-03-31T17:26:03;3.23;;;0.90;;
3643;SDS011;1838;50.742;7.158;2023-03-31T17:28:30;4.30;;;1.23;;
3643;SDS011;1838;50.742;7.158;2023-03-31T17:30:56;2.57;;;1.17;;
3643;SDS011;1838;50.742;7.158;2023-03-31T17:33:22;2.40;;;1.10;;
3643;SDS011;1838;50.742;7.158;2023-03-31T17:35:48;7.40;;;1.27;;
3643;SDS011;1838;50.742;7.158;2023-03-31T17:38:14;4.73;;;1.20;;
3643;SDS011;1838;50.742;7.158;2023-03-31T17:40:40;9.27;;;1.60;;
3643;SDS011;1838;50.742;7.158;2023-03-31T17:43:07;2.57;;;1.00;;
3643;SDS011;1838;50.742;7.158;2023-03-31T17:45:32;4.60;;;1.10;;
3643;SDS011;1838;50.742;7.158;2023-03-31T17:47:58;3.20;;;1.10;;
3643;SDS011;1838;50.742;7.158;2023-03-31T17:50:25;7.10;;;1.77;;
3643;SDS011;1838;50.742;7.158;2023-03-31T17:52:51;4.30;;;1.17;;
3643;SDS011;1838;50.742;7.158;2023-03-31T17:55:17;4.03;;;0.90;;
3643;SDS011;1838;50.742;7.158;2023-03-31T17:57:46;7.40;;;1.20;;
3643;SDS011;1838;50.742;7.158;2023-03-31T18:00:11;2.13;;;1.20;;
3643;SDS011;1838;50.742;7.158;2023-03-31T18:02:41;4.33;;;0.90;;
3643;SDS011;1838;50.742;7.158;2023-03-31T18:05:06;1.90;;;0.80;;
3643;SDS011;1838;50.742;7.158;2023-03-31T18:07:34;3.53;;;1.17;;
3643;SDS011;1838;50.742;7.158;2023-03-31T18:10:01;5.47;;;1.07;;
3643;SDS011;1838;50.742;7.158;2023-03-31T18:12:29;3.97;;;0.90;;
3643;SDS011;1838;50.742;7.158;2023-03-31T18:14:56;5.30;;;0.80;;
3643;SDS011;1838;50.742;7.158;2023-03-31T18:17:22;1.80;;;0.80;;
3643;SDS011;1838;50.742;7.158;2023-03-31T18:19:48;3.23;;;1.13;;
3643;SDS011;1838;50.742;7.158;2023-03-31T18:22:13;2.10;;;1.60;;
3643;SDS011;1838;50.742;7.158;2023-03-31T18:24:39;2.57;;;0.80;;
3643;SDS011;1838;50.742;7.158;2023-03-31T18:27:05;2.60;;;1.00;;